sensor_id;sensor_type;location;lat;lon;timestamp;P1;durP1;ratioP1;P2;durP2;ratioP2
6823;SDS011;58633;49.470;11.004;2023-08-24T00:00:41;6.40;;;4.45;;
6823;SDS011;58633;49.470;11.004;2023-08-24T00:03:08;7.80;;;5.22;;
6823;SDS011;58633;49.470;11.004;2023-08-24T00:05:34;7.38;;;4.75;;
6823;SDS011;58633;49.470;11.004;2023-08-24T00:08:03;6.43;;;4.88;;
6823;SDS011;58633;49.470;11.004;2023-08-24T00:10:29;5.53;;;4.93;;
6823;SDS011;58633;49.470;11.004;2023-08-24T00:12:55;8.10;;;4.60;;
6823;SDS011;58633;49.470;11.004;2023-08-24T00:15:20;8.88;;;4.78;;
6823;SDS011;58633;49.470;11.004;2023-08-24T00:17:46;5.03;;;4.55;;
6823;SDS011;58633;49.470;11.004;2023-08-24T00:20:11;6.85;;;4.65;;
6823;SDS011;58633;49.470;11.004;2023-08-24T00:22:38;4.70;;;4.25;;
6823;SDS011;58633;49.470;11.004;2023-08-24T00:25:05;6.35;;;4.80;;
6823;SDS011;58633;49.470;11.004;2023-08-24T00:27:34;7.38;;;5.30;;
6823;SDS011;58633;49.470;11.004;2023-08-24T00:30:00;8.02;;;4.32;;
6823;SDS011;58633;49.470;11.004;2023-08-24T00:32:28;8.27;;;5.00;;
6823;SDS011;58633;49.470;11.004;2023-08-24T00:34:53;5.30;;;4.45;;
6823;SDS011;58633;49.470;11.004;2023-08-24T00:37:19;9.43;;;4.57;;
6823;SDS011;58633;49.470;11.004;2023-08-24T00:39:45;6.70;;;4.55;;
6823;SDS011;58633;49.470;11.004;2023-08-24T00:42:11;11.55;;;5.05;;
6823;SDS011;58633;49.470;11.004;2023-08-24T00:44:40;5.38;;;4.88;;
6823;SDS011;58633;49.470;11.004;2023-08-24T00:47:06;7.07;;;4.88;;
6823;SDS011;58633;49.470;11.004;2023-08-24T00:49:33;9.55;;;5.00;;
6823;SDS011;58633;49.470;11.004;2023-08-24T00:52:00;5.88;;;4.57;;
6823;SDS011;58633;49.470;11.004;2023-08-24T00:54:25;7.38;;;5.00;;
6823;SDS011;58633;49.470;11.004;2023-08-24T00:56:52;8.30;;;5.22;;
6823;SDS011;58633;49.470;11.004;2023-08-24T00:59:18;7.57;;;4.75;;
6823;SDS011;58633;49.470;11.004;2023-08-24T01:01:44;5.18;;;4.60;;
6823;SDS011;58633;49.470;11.004;2023-08-24T01:04:11;7.00;;;4.18;;
6823;SDS011;58633;49.470;11.004;2023-08-24T01:06:37;7.13;;;4.40;;
6823;SDS011;58633;49.470;11.004;2023-08-24T01:09:03;8.07;;;4.60;;
6823;SDS011;58633;49.470;11.004;2023-08-24T01:11:35;5.63;;;4.93;;
6823;SDS011;58633;49.470;11.004;2023-08-24T01:14:30;5.10;;;4.60;;
6823;SDS011;58633;49.470;11.004;2023-08-24T01:17:11;8.57;;;4.65;;
6823;SDS011;58633;49.470;11.004;2023-08-24T01:19:42;6.25;;;4.28;;
6823;SDS011;58633;49.470;11.004;2023-08-24T01:25:11;7.53;;;4.60;;
6823;SDS011;58633;49.470;11.004;2023-08-24T01:27:55;8.65;;;4.40;;
6823;SDS011;58633;49.470;11.004;2023-08-24T01:30:22;9.45;;;4.50;;
6823;SDS011;58633;49.470;11.004;2023-08-24T01:32:47;7.93;;;4.28;;
6823;SDS011;58633;49.470;11.004;2023-08-24T01:35:13;5.78;;;4.32;;
6823;SDS011;58633;49.470;11.004;2023-08-24T01:37:38;5.60;;;4.50;;
6823;SDS011;58633;49.470;11.004;2023-08-24T01:42:35;7.43;;;5.18;;
6823;SDS011;58633;49.470;11.004;2023-08-24T01:45:09;6.22;;;5.07;;
6823;SDS011;58633;49.470;11.004;2023-08-24T01:47:36;6.00;;;5.40;;
6823;SDS011;58633;49.470;11.004;2023-08-24T01:50:03;6.18;;;5.43;;
6823;SDS011;58633;49.470;11.004;2023-08-24T01:52:29;6.50;;;5.78;;
6823;SDS011;58633;49.470;11.004;2023-08-24T01:54:56;5.75;;;5.18;;
6823;SDS011;58633;49.470;11.004;2023-08-24T01:57:22;7.43;;;5.63;;
6823;SDS011;58633;49.470;11.004;2023-08-24T01:59:48;7.03;;;5.50;;
6823;SDS011;58633;49.470;11.004;2023-08-24T02:02:13;7.70;;;5.30;;
6823;SDS011;58633;49.470;11.004;2023-08-24T02:04:39;8.93;;;5.88;;
6823;SDS011;58633;49.470;11.004;2023-08-24T02:07:05;8.77;;;6.38;;
6823;SDS011;58633;49.470;11.004;2023-08-24T02:09:30;6.55;;;5.88;;
6823;SDS011;58633;49.470;11.004;2023-08-24T02:11:56;7.25;;;6.13;;
6823;SDS011;58633;49.470;11.004;2023-08-24T02:14:22;8.73;;;6.35;;
6823;SDS011;58633;49.470;11.004;2023-08-24T02:16:47;7.45;;;6.75;;
6823;SDS011;58633;49.470;11.004;2023-08-24T02:19:13;13.07;;;7.47;;
6823;SDS011;58633;49.470;11.004;2023-08-24T02:21:39;6.38;;;5.78;;
6823;SDS011;58633;49.470;11.004;2023-08-24T02:24:04;8.30;;;6.40;;
6823;SDS011;58633;49.470;11.004;2023-08-24T02:26:30;6.97;;;6.22;;
6823;SDS011;58633;49.470;11.004;2023-08-24T02:28:56;9.50;;;6.50;;
6823;SDS011;58633;49.470;11.004;2023-08-24T02:31:22;12.43;;;6.60;;
6823;SDS011;58633;49.470;11.004;2023-08-24T02:33:48;11.88;;;6.95;;
6823;SDS011;58633;49.470;11.004;2023-08-24T02:36:14;9.23;;;6.53;;
6823;SDS011;58633;49.470;11.004;2023-08-24T02:38:39;7.00;;;6.30;;
6823;SDS011;58633;49.470;11.004;2023-08-24T02:41:06;7.65;;;6.65;;
6823;SDS011;58633;49.470;11.004;2023-08-24T02:43:33;7.47;;;6.30;;
6823;SDS011;58633;49.470;11.004;2023-08-24T02:46:02;8.38;;;6.35;;
6823;SDS011;58633;49.470;11.004;2023-08-24T02:48:29;6.30;;;5.70;;
6823;SDS011;58633;49.470;11.004;2023-08-24T02:50:56;6.88;;;5.40;;
6823;SDS011;58633;49.470;11.004;2023-08-24T02:53:22;6.22;;;5.50;;
6823;SDS011;58633;49.470;11.004;2023-08-24T02:55:48;8.25;;;5.82;;
6823;SDS011;58633;49.470;11.004;2023-08-24T02:58:13;5.90;;;5.20;;
6823;SDS011;58633;49.470;11.004;2023-08-24T03:00:39;9.32;;;5.60;;
6823;SDS011;58633;49.470;11.004;2023-08-24T03:03:05;5.93;;;5.43;;
6823;SDS011;58633;49.470;11.004;2023-08-24T03:05:33;6.28;;;5.50;;
6823;SDS011;58633;49.470;11.004;2023-08-24T03:07:58;8.48;;;4.97;;
6823;SDS011;58633;49.470;11.004;2023-08-24T03:10:24;6.45;;;5.50;;
6823;SDS011;58633;49.470;11.004;2023-08-24T03:12:50;7.30;;;5.35;;
6823;SDS011;58633;49.470;11.004;2023-08-24T03:15:15;7.45;;;5.07;;
6823;SDS011;58633;49.470;11.004;2023-08-24T03:17:41;5.97;;;5.38;;
6823;SDS011;58633;49.470;11.004;2023-08-24T03:20:07;5.80;;;5.20;;
6823;SDS011;58633;49.470;11.004;2023-08-24T03:22:34;6.55;;;4.90;;
6823;SDS011;58633;49.470;11.004;2023-08-24T03:24:59;6.47;;;5.35;;
6823;SDS011;58633;49.470;11.004;2023-08-24T03:27:25;6.85;;;5.47;;
6823;SDS011;58633;49.470;11.004;2023-08-24T03:29:53;8.38;;;5.60;;
6823;SDS011;58633;49.470;11.004;2023-08-24T03:32:19;7.60;;;5.38;;
6823;SDS011;58633;49.470;11.004;2023-08-24T03:34:45;6.68;;;5.25;;
6823;SDS011;58633;49.470;11.004;2023-08-24T03:37:10;5.78;;;5.10;;
6823;SDS011;58633;49.470;11.004;2023-08-24T03:39:39;6.00;;;5.30;;
6823;SDS011;58633;49.470;11.004;2023-08-24T03:42:06;8.57;;;6.00;;
6823;SDS011;58633;49.470;11.004;2023-08-24T03:44:31;5.75;;;5.18;;
6823;SDS011;58633;49.470;11.004;2023-08-24T03:46:57;7.90;;;5.43;;
6823;SDS011;58633;49.470;11.004;2023-08-24T03:49:22;6.28;;;4.97;;
6823;SDS011;58633;49.470;11.004;2023-08-24T03:51:48;6.18;;;5.57;;
6823;SDS011;58633;49.470;11.004;2023-08-24T03:54:13;7.95;;;5.57;;
6823;SDS011;58633;49.470;11.004;2023-08-24T03:56:39;5.82;;;5.30;;
6823;SDS011;58633;49.470;11.004;2023-08-24T03:59:04;7.65;;;5.30;;
6823;SDS011;58633;49.470;11.004;2023-08-24T04:01:30;8.05;;;5.82;;
6823;SDS011;58633;49.470;11.004;2023-08-24T04:03:55;7.68;;;5.45;;
6823;SDS011;58633;49.470;11.004;2023-08-24T04:06:22;5.43;;;4.93;;
6823;SDS011;58633;49.470;11.004;2023-08-24T04:08:49;8.00;;;5.50;;
6823;SDS011;58633;49.470;11.004;2023-08-24T04:11:14;8.57;;;5.40;;
6823;SDS011;58633;49.470;11.004;2023-08-24T04:13:40;5.40;;;5.00;;
6823;SDS011;58633;49.470;11.004;2023-08-24T04:16:05;6.45;;;5.25;;
6823;SDS011;58633;49.470;11.004;2023-08-24T04:18:31;6.35;;;5.13;;
6823;SDS011;58633;49.470;11.004;2023-08-24T04:20:56;7.97;;;5.45;;
6823;SDS011;58633;49.470;11.004;2023-08-24T04:23:25;16.30;;;5.53;;
6823;SDS011;58633;49.470;11.004;2023-08-24T04:25:51;8.15;;;5.65;;
6823;SDS011;58633;49.470;11.004;2023-08-24T04:28:18;9.75;;;5.78;;
6823;SDS011;58633;49.470;11.004;2023-08-24T04:30:53;8.52;;;5.47;;
6823;SDS011;58633;49.470;11.004;2023-08-24T04:33:21;7.05;;;5.35;;
6823;SDS011;58633;49.470;11.004;2023-08-24T04:35:47;8.48;;;4.95;;
6823;SDS011;58633;49.470;11.004;2023-08-24T04:38:16;7.80;;;5.43;;
6823;SDS011;58633;49.470;11.004;2023-08-24T04:40:52;5.72;;;5.15;;
6823;SDS011;58633;49.470;11.004;2023-08-24T04:43:20;6.85;;;5.25;;
6823;SDS011;58633;49.470;11.004;2023-08-24T04:45:48;10.82;;;5.70;;
6823;SDS011;58633;49.470;11.004;2023-08-24T04:48:17;9.38;;;5.32;;
6823;SDS011;58633;49.470;11.004;2023-08-24T04:50:43;10.13;;;5.40;;
6823;SDS011;58633;49.470;11.004;2023-08-24T04:53:12;8.45;;;5.20;;
6823;SDS011;58633;49.470;11.004;2023-08-24T04:55:40;8.18;;;5.50;;
6823;SDS011;58633;49.470;11.004;2023-08-24T04:58:09;8.75;;;5.40;;
6823;SDS011;58633;49.470;11.004;2023-08-24T05:00:36;5.85;;;5.20;;
6823;SDS011;58633;49.470;11.004;2023-08-24T05:03:03;8.50;;;5.53;;
6823;SDS011;58633;49.470;11.004;2023-08-24T05:05:30;8.10;;;5.20;;
6823;SDS011;58633;49.470;11.004;2023-08-24T05:07:56;8.77;;;5.28;;
6823;SDS011;58633;49.470;11.004;2023-08-24T05:10:22;7.88;;;5.20;;
6823;SDS011;58633;49.470;11.004;2023-08-24T05:12:48;9.18;;;5.00;;
6823;SDS011;58633;49.470;11.004;2023-08-24T05:15:13;8.45;;;5.50;;
6823;SDS011;58633;49.470;11.004;2023-08-24T05:17:39;7.13;;;5.32;;
6823;SDS011;58633;49.470;11.004;2023-08-24T05:20:19;6.85;;;5.57;;
6823;SDS011;58633;49.470;11.004;2023-08-24T05:22:44;8.32;;;5.90;;
6823;SDS011;58633;49.470;11.004;2023-08-24T05:25:10;7.68;;;5.50;;
6823;SDS011;58633;49.470;11.004;2023-08-24T05:27:36;7.43;;;5.72;;
6823;SDS011;58633;49.470;11.004;2023-08-24T05:30:03;6.75;;;5.95;;
6823;SDS011;58633;49.470;11.004;2023-08-24T05:32:30;7.40;;;5.55;;
6823;SDS011;58633;49.470;11.004;2023-08-24T05:34:56;9.15;;;5.68;;
6823;SDS011;58633;49.470;11.004;2023-08-24T05:37:21;7.25;;;5.47;;
6823;SDS011;58633;49.470;11.004;2023-08-24T05:39:48;8.88;;;5.88;;
6823;SDS011;58633;49.470;11.004;2023-08-24T05:42:14;9.20;;;5.38;;
6823;SDS011;58633;49.470;11.004;2023-08-24T05:44:39;6.10;;;5.50;;
6823;SDS011;58633;49.470;11.004;2023-08-24T05:47:05;7.88;;;6.00;;
6823;SDS011;58633;49.470;11.004;2023-08-24T05:49:31;7.22;;;5.82;;
6823;SDS011;58633;49.470;11.004;2023-08-24T05:51:57;7.50;;;5.63;;
6823;SDS011;58633;49.470;11.004;2023-08-24T05:54:22;9.45;;;5.85;;
6823;SDS011;58633;49.470;11.004;2023-08-24T05:56:48;7.95;;;6.72;;
6823;SDS011;58633;49.470;11.004;2023-08-24T05:59:14;9.68;;;7.40;;
6823;SDS011;58633;49.470;11.004;2023-08-24T06:01:39;12.05;;;7.13;;
6823;SDS011;58633;49.470;11.004;2023-08-24T06:04:06;14.38;;;7.22;;
6823;SDS011;58633;49.470;11.004;2023-08-24T06:06:35;8.82;;;6.82;;
6823;SDS011;58633;49.470;11.004;2023-08-24T06:09:01;8.43;;;6.40;;
6823;SDS011;58633;49.470;11.004;2023-08-24T06:11:32;7.50;;;5.88;;
6823;SDS011;58633;49.470;11.004;2023-08-24T06:13:57;9.95;;;5.80;;
6823;SDS011;58633;49.470;11.004;2023-08-24T06:16:23;7.75;;;6.35;;
6823;SDS011;58633;49.470;11.004;2023-08-24T06:18:49;8.30;;;6.85;;
6823;SDS011;58633;49.470;11.004;2023-08-24T06:21:15;9.75;;;7.43;;
6823;SDS011;58633;49.470;11.004;2023-08-24T06:23:41;11.48;;;7.60;;
6823;SDS011;58633;49.470;11.004;2023-08-24T06:26:06;8.95;;;6.90;;
6823;SDS011;58633;49.470;11.004;2023-08-24T06:28:32;11.77;;;7.55;;
6823;SDS011;58633;49.470;11.004;2023-08-24T06:30:59;10.50;;;7.97;;
6823;SDS011;58633;49.470;11.004;2023-08-24T06:33:28;16.90;;;8.25;;
6823;SDS011;58633;49.470;11.004;2023-08-24T06:35:55;10.05;;;7.40;;
6823;SDS011;58633;49.470;11.004;2023-08-24T06:38:21;10.73;;;7.60;;
6823;SDS011;58633;49.470;11.004;2023-08-24T06:40:47;14.07;;;6.95;;
6823;SDS011;58633;49.470;11.004;2023-08-24T06:43:12;7.57;;;5.82;;
6823;SDS011;58633;49.470;11.004;2023-08-24T06:45:39;8.25;;;5.20;;
6823;SDS011;58633;49.470;11.004;2023-08-24T06:48:05;8.23;;;4.72;;
6823;SDS011;58633;49.470;11.004;2023-08-24T06:50:32;5.55;;;4.60;;
6823;SDS011;58633;49.470;11.004;2023-08-24T06:52:58;8.15;;;4.65;;
6823;SDS011;58633;49.470;11.004;2023-08-24T06:55:23;6.40;;;4.30;;
6823;SDS011;58633;49.470;11.004;2023-08-24T06:57:49;8.85;;;4.55;;
6823;SDS011;58633;49.470;11.004;2023-08-24T07:00:16;6.85;;;4.40;;
6823;SDS011;58633;49.470;11.004;2023-08-24T07:02:42;5.75;;;4.45;;
6823;SDS011;58633;49.470;11.004;2023-08-24T07:05:08;7.80;;;4.70;;
6823;SDS011;58633;49.470;11.004;2023-08-24T07:07:34;8.40;;;4.85;;
6823;SDS011;58633;49.470;11.004;2023-08-24T07:10:00;6.28;;;5.18;;
6823;SDS011;58633;49.470;11.004;2023-08-24T07:12:26;5.63;;;5.00;;
6823;SDS011;58633;49.470;11.004;2023-08-24T07:14:52;5.95;;;5.00;;
6823;SDS011;58633;49.470;11.004;2023-08-24T07:17:18;5.50;;;4.90;;
6823;SDS011;58633;49.470;11.004;2023-08-24T07:19:43;9.77;;;5.40;;
6823;SDS011;58633;49.470;11.004;2023-08-24T07:22:09;6.63;;;4.70;;
6823;SDS011;58633;49.470;11.004;2023-08-24T07:24:36;5.57;;;4.95;;
6823;SDS011;58633;49.470;11.004;2023-08-24T07:27:01;7.50;;;5.10;;
6823;SDS011;58633;49.470;11.004;2023-08-24T07:29:30;10.40;;;5.22;;
6823;SDS011;58633;49.470;11.004;2023-08-24T07:31:56;10.88;;;5.40;;
6823;SDS011;58633;49.470;11.004;2023-08-24T07:34:22;9.32;;;5.03;;
6823;SDS011;58633;49.470;11.004;2023-08-24T07:36:48;7.72;;;5.25;;
6823;SDS011;58633;49.470;11.004;2023-08-24T07:39:13;9.18;;;5.20;;
6823;SDS011;58633;49.470;11.004;2023-08-24T07:41:40;7.60;;;4.75;;
6823;SDS011;58633;49.470;11.004;2023-08-24T07:44:06;6.22;;;4.60;;
6823;SDS011;58633;49.470;11.004;2023-08-24T07:46:32;7.15;;;4.50;;
6823;SDS011;58633;49.470;11.004;2023-08-24T07:48:58;10.68;;;4.80;;
6823;SDS011;58633;49.470;11.004;2023-08-24T07:51:24;7.03;;;4.03;;
6823;SDS011;58633;49.470;11.004;2023-08-24T07:53:49;6.65;;;4.40;;
6823;SDS011;58633;49.470;11.004;2023-08-24T07:56:17;6.88;;;4.03;;
6823;SDS011;58633;49.470;11.004;2023-08-24T07:58:45;4.78;;;4.18;;
6823;SDS011;58633;49.470;11.004;2023-08-24T08:01:11;7.35;;;4.13;;
6823;SDS011;58633;49.470;11.004;2023-08-24T08:03:37;7.07;;;3.83;;
6823;SDS011;58633;49.470;11.004;2023-08-24T08:06:03;5.32;;;3.72;;
6823;SDS011;58633;49.470;11.004;2023-08-24T08:08:29;4.80;;;4.00;;
6823;SDS011;58633;49.470;11.004;2023-08-24T08:10:59;6.85;;;3.40;;
6823;SDS011;58633;49.470;11.004;2023-08-24T08:13:25;3.75;;;3.42;;
6823;SDS011;58633;49.470;11.004;2023-08-24T08:15:51;4.30;;;3.47;;
6823;SDS011;58633;49.470;11.004;2023-08-24T08:18:17;4.63;;;3.30;;
6823;SDS011;58633;49.470;11.004;2023-08-24T08:20:43;6.57;;;3.67;;
6823;SDS011;58633;49.470;11.004;2023-08-24T08:23:08;8.77;;;3.90;;
6823;SDS011;58633;49.470;11.004;2023-08-24T08:25:34;4.90;;;3.60;;
6823;SDS011;58633;49.470;11.004;2023-08-24T08:28:00;7.07;;;4.03;;
6823;SDS011;58633;49.470;11.004;2023-08-24T08:30:25;5.75;;;3.60;;
6823;SDS011;58633;49.470;11.004;2023-08-24T08:32:51;4.97;;;3.60;;
6823;SDS011;58633;49.470;11.004;2023-08-24T08:35:17;5.18;;;3.58;;
6823;SDS011;58633;49.470;11.004;2023-08-24T08:37:43;7.25;;;3.72;;
6823;SDS011;58633;49.470;11.004;2023-08-24T08:40:10;9.25;;;3.95;;
6823;SDS011;58633;49.470;11.004;2023-08-24T08:42:36;4.47;;;3.40;;
6823;SDS011;58633;49.470;11.004;2023-08-24T08:45:03;6.97;;;3.55;;
6823;SDS011;58633;49.470;11.004;2023-08-24T08:47:33;5.65;;;3.63;;
6823;SDS011;58633;49.470;11.004;2023-08-24T08:49:59;5.50;;;3.20;;
6823;SDS011;58633;49.470;11.004;2023-08-24T08:52:27;5.18;;;3.40;;
6823;SDS011;58633;49.470;11.004;2023-08-24T08:54:53;6.47;;;3.13;;
6823;SDS011;58633;49.470;11.004;2023-08-24T08:57:19;10.38;;;3.97;;
6823;SDS011;58633;49.470;11.004;2023-08-24T08:59:47;7.80;;;3.58;;
6823;SDS011;58633;49.470;11.004;2023-08-24T09:02:16;13.70;;;3.65;;
6823;SDS011;58633;49.470;11.004;2023-08-24T09:04:44;8.15;;;4.40;;
6823;SDS011;58633;49.470;11.004;2023-08-24T09:07:10;4.78;;;3.28;;
6823;SDS011;58633;49.470;11.004;2023-08-24T09:09:39;10.95;;;3.92;;
6823;SDS011;58633;49.470;11.004;2023-08-24T09:12:05;6.18;;;3.30;;
6823;SDS011;58633;49.470;11.004;2023-08-24T09:14:32;6.07;;;3.53;;
6823;SDS011;58633;49.470;11.004;2023-08-24T09:16:58;6.40;;;3.50;;
6823;SDS011;58633;49.470;11.004;2023-08-24T09:19:27;5.80;;;3.78;;
6823;SDS011;58633;49.470;11.004;2023-08-24T09:21:56;7.82;;;3.75;;
6823;SDS011;58633;49.470;11.004;2023-08-24T09:24:28;7.05;;;3.50;;
6823;SDS011;58633;49.470;11.004;2023-08-24T09:26:55;13.93;;;3.78;;
6823;SDS011;58633;49.470;11.004;2023-08-24T09:29:20;10.15;;;4.15;;
6823;SDS011;58633;49.470;11.004;2023-08-24T09:31:46;11.25;;;3.95;;
6823;SDS011;58633;49.470;11.004;2023-08-24T09:34:18;7.35;;;3.85;;
6823;SDS011;58633;49.470;11.004;2023-08-24T09:36:47;12.70;;;3.85;;
6823;SDS011;58633;49.470;11.004;2023-08-24T09:39:13;9.23;;;4.28;;
6823;SDS011;58633;49.470;11.004;2023-08-24T09:41:43;7.10;;;3.97;;
6823;SDS011;58633;49.470;11.004;2023-08-24T09:44:10;6.30;;;3.60;;
6823;SDS011;58633;49.470;11.004;2023-08-24T09:46:36;5.05;;;3.65;;
6823;SDS011;58633;49.470;11.004;2023-08-24T09:49:04;7.05;;;3.50;;
6823;SDS011;58633;49.470;11.004;2023-08-24T09:51:30;3.35;;;3.05;;
6823;SDS011;58633;49.470;11.004;2023-08-24T09:53:58;7.90;;;3.30;;
6823;SDS011;58633;49.470;11.004;2023-08-24T09:56:27;6.05;;;3.20;;
6823;SDS011;58633;49.470;11.004;2023-08-24T09:58:54;5.68;;;2.88;;
6823;SDS011;58633;49.470;11.004;2023-08-24T10:01:20;7.45;;;3.58;;
6823;SDS011;58633;49.470;11.004;2023-08-24T10:03:50;6.20;;;2.88;;
6823;SDS011;58633;49.470;11.004;2023-08-24T10:06:23;7.20;;;2.80;;
6823;SDS011;58633;49.470;11.004;2023-08-24T10:08:56;4.97;;;2.97;;
6823;SDS011;58633;49.470;11.004;2023-08-24T10:11:26;4.38;;;2.72;;
6823;SDS011;58633;49.470;11.004;2023-08-24T10:14:10;3.85;;;2.60;;
6823;SDS011;58633;49.470;11.004;2023-08-24T10:16:44;3.67;;;2.75;;
6823;SDS011;58633;49.470;11.004;2023-08-24T10:19:11;6.15;;;2.55;;
6823;SDS011;58633;49.470;11.004;2023-08-24T10:21:38;3.17;;;2.70;;
6823;SDS011;58633;49.470;11.004;2023-08-24T10:24:04;4.07;;;2.47;;
6823;SDS011;58633;49.470;11.004;2023-08-24T10:26:32;3.70;;;2.45;;
6823;SDS011;58633;49.470;11.004;2023-08-24T10:28:58;5.78;;;2.53;;
6823;SDS011;58633;49.470;11.004;2023-08-24T10:31:24;3.58;;;2.40;;
6823;SDS011;58633;49.470;11.004;2023-08-24T10:33:51;4.32;;;2.50;;
6823;SDS011;58633;49.470;11.004;2023-08-24T10:36:17;4.90;;;2.72;;
6823;SDS011;58633;49.470;11.004;2023-08-24T10:38:44;3.78;;;2.80;;
6823;SDS011;58633;49.470;11.004;2023-08-24T10:41:10;3.78;;;2.30;;
6823;SDS011;58633;49.470;11.004;2023-08-24T10:43:39;3.72;;;2.47;;
6823;SDS011;58633;49.470;11.004;2023-08-24T10:46:12;3.60;;;2.40;;
6823;SDS011;58633;49.470;11.004;2023-08-24T10:53:55;9.07;;;2.80;;
6823;SDS011;58633;49.470;11.004;2023-08-24T10:56:29;5.07;;;3.00;;
6823;SDS011;58633;49.470;11.004;2023-08-24T10:59:19;4.85;;;2.53;;
6823;SDS011;58633;49.470;11.004;2023-08-24T11:04:19;2.50;;;2.30;;
6823;SDS011;58633;49.470;11.004;2023-08-24T11:06:55;3.28;;;2.60;;
6823;SDS011;58633;49.470;11.004;2023-08-24T11:09:24;5.53;;;2.83;;
6823;SDS011;58633;49.470;11.004;2023-08-24T11:11:57;4.28;;;2.75;;
6823;SDS011;58633;49.470;11.004;2023-08-24T11:14:24;4.72;;;2.65;;
6823;SDS011;58633;49.470;11.004;2023-08-24T11:16:58;3.03;;;2.70;;
6823;SDS011;58633;49.470;11.004;2023-08-24T11:19:25;6.57;;;2.65;;
6823;SDS011;58633;49.470;11.004;2023-08-24T11:21:51;3.53;;;2.50;;
6823;SDS011;58633;49.470;11.004;2023-08-24T11:24:17;2.83;;;2.53;;
6823;SDS011;58633;49.470;11.004;2023-08-24T11:26:44;4.90;;;2.58;;
6823;SDS011;58633;49.470;11.004;2023-08-24T11:29:11;3.90;;;2.70;;
6823;SDS011;58633;49.470;11.004;2023-08-24T11:31:37;7.82;;;2.85;;
6823;SDS011;58633;49.470;11.004;2023-08-24T11:34:06;3.45;;;2.55;;
6823;SDS011;58633;49.470;11.004;2023-08-24T11:36:52;4.03;;;2.45;;
6823;SDS011;58633;49.470;11.004;2023-08-24T11:39:19;4.95;;;2.50;;
6823;SDS011;58633;49.470;11.004;2023-08-24T11:41:59;7.22;;;2.40;;
6823;SDS011;58633;49.470;11.004;2023-08-24T11:44:25;10.00;;;2.80;;
6823;SDS011;58633;49.470;11.004;2023-08-24T11:46:51;3.00;;;2.42;;
6823;SDS011;58633;49.470;11.004;2023-08-24T11:49:17;16.67;;;3.22;;
6823;SDS011;58633;49.470;11.004;2023-08-24T11:51:43;5.93;;;2.47;;
6823;SDS011;58633;49.470;11.004;2023-08-24T11:54:08;8.02;;;2.90;;
6823;SDS011;58633;49.470;11.004;2023-08-24T11:56:52;4.68;;;2.38;;
6823;SDS011;58633;49.470;11.004;2023-08-24T11:59:18;6.05;;;2.60;;
6823;SDS011;58633;49.470;11.004;2023-08-24T12:01:44;5.43;;;2.92;;
6823;SDS011;58633;49.470;11.004;2023-08-24T12:04:11;4.28;;;2.95;;
6823;SDS011;58633;49.470;11.004;2023-08-24T12:06:37;4.03;;;2.60;;
6823;SDS011;58633;49.470;11.004;2023-08-24T12:09:05;5.65;;;3.15;;
6823;SDS011;58633;49.470;11.004;2023-08-24T12:11:34;2.45;;;2.25;;
6823;SDS011;58633;49.470;11.004;2023-08-24T12:14:03;8.48;;;3.05;;
6823;SDS011;58633;49.470;11.004;2023-08-24T12:16:31;6.20;;;2.60;;
6823;SDS011;58633;49.470;11.004;2023-08-24T12:18:58;5.55;;;2.90;;
6823;SDS011;58633;49.470;11.004;2023-08-24T12:21:25;3.65;;;2.55;;
6823;SDS011;58633;49.470;11.004;2023-08-24T12:26:30;2.63;;;2.42;;
6823;SDS011;58633;49.470;11.004;2023-08-24T12:29:01;8.00;;;2.78;;
6823;SDS011;58633;49.470;11.004;2023-08-24T12:31:30;2.85;;;2.63;;
6823;SDS011;58633;49.470;11.004;2023-08-24T12:34:00;10.10;;;2.55;;
6823;SDS011;58633;49.470;11.004;2023-08-24T12:36:33;2.95;;;2.60;;
6823;SDS011;58633;49.470;11.004;2023-08-24T12:39:01;5.03;;;2.60;;
6823;SDS011;58633;49.470;11.004;2023-08-24T12:41:29;8.30;;;2.70;;
6823;SDS011;58633;49.470;11.004;2023-08-24T12:43:55;5.95;;;2.65;;
6823;SDS011;58633;49.470;11.004;2023-08-24T12:46:21;18.52;;;3.10;;
6823;SDS011;58633;49.470;11.004;2023-08-24T12:48:46;5.20;;;2.65;;
6823;SDS011;58633;49.470;11.004;2023-08-24T12:51:12;6.78;;;2.50;;
6823;SDS011;58633;49.470;11.004;2023-08-24T12:53:37;3.90;;;2.30;;
6823;SDS011;58633;49.470;11.004;2023-08-24T12:56:03;3.95;;;2.33;;
6823;SDS011;58633;49.470;11.004;2023-08-24T12:58:29;5.07;;;2.60;;
6823;SDS011;58633;49.470;11.004;2023-08-24T13:00:55;2.58;;;2.38;;
6823;SDS011;58633;49.470;11.004;2023-08-24T13:03:21;4.18;;;2.70;;
6823;SDS011;58633;49.470;11.004;2023-08-24T13:05:46;6.15;;;3.10;;
6823;SDS011;58633;49.470;11.004;2023-08-24T13:08:12;4.68;;;2.78;;
6823;SDS011;58633;49.470;11.004;2023-08-24T13:10:38;4.80;;;2.83;;
6823;SDS011;58633;49.470;11.004;2023-08-24T13:13:04;5.97;;;2.58;;
6823;SDS011;58633;49.470;11.004;2023-08-24T13:15:29;6.53;;;2.60;;
6823;SDS011;58633;49.470;11.004;2023-08-24T13:17:55;6.43;;;2.70;;
6823;SDS011;58633;49.470;11.004;2023-08-24T13:20:23;2.65;;;2.28;;
6823;SDS011;58633;49.470;11.004;2023-08-24T13:22:49;3.45;;;2.70;;
6823;SDS011;58633;49.470;11.004;2023-08-24T13:25:14;3.95;;;2.55;;
6823;SDS011;58633;49.470;11.004;2023-08-24T13:27:40;3.33;;;2.40;;
6823;SDS011;58633;49.470;11.004;2023-08-24T13:30:06;4.57;;;2.88;;
6823;SDS011;58633;49.470;11.004;2023-08-24T13:32:32;6.63;;;2.67;;
6823;SDS011;58633;49.470;11.004;2023-08-24T13:34:59;5.68;;;2.80;;
6823;SDS011;58633;49.470;11.004;2023-08-24T13:37:25;4.47;;;2.63;;
6823;SDS011;58633;49.470;11.004;2023-08-24T13:39:51;4.45;;;2.63;;
6823;SDS011;58633;49.470;11.004;2023-08-24T13:42:17;6.25;;;2.60;;
6823;SDS011;58633;49.470;11.004;2023-08-24T13:44:44;2.13;;;2.00;;
6823;SDS011;58633;49.470;11.004;2023-08-24T13:47:13;4.25;;;2.90;;
6823;SDS011;58633;49.470;11.004;2023-08-24T13:49:39;5.35;;;2.90;;
6823;SDS011;58633;49.470;11.004;2023-08-24T13:52:05;4.07;;;2.50;;
6823;SDS011;58633;49.470;11.004;2023-08-24T13:54:31;5.00;;;2.65;;
6823;SDS011;58633;49.470;11.004;2023-08-24T13:56:57;4.72;;;2.53;;
6823;SDS011;58633;49.470;11.004;2023-08-24T13:59:25;4.07;;;2.70;;
6823;SDS011;58633;49.470;11.004;2023-08-24T14:01:50;4.95;;;2.53;;
6823;SDS011;58633;49.470;11.004;2023-08-24T14:04:16;3.67;;;2.42;;
6823;SDS011;58633;49.470;11.004;2023-08-24T14:06:41;6.97;;;3.55;;
6823;SDS011;58633;49.470;11.004;2023-08-24T14:09:07;4.70;;;2.38;;
6823;SDS011;58633;49.470;11.004;2023-08-24T14:11:33;4.10;;;2.50;;
6823;SDS011;58633;49.470;11.004;2023-08-24T14:13:58;5.82;;;2.60;;
6823;SDS011;58633;49.470;11.004;2023-08-24T14:16:25;4.65;;;2.60;;
6823;SDS011;58633;49.470;11.004;2023-08-24T14:18:51;4.45;;;2.40;;
6823;SDS011;58633;49.470;11.004;2023-08-24T14:21:18;4.35;;;2.45;;
6823;SDS011;58633;49.470;11.004;2023-08-24T14:23:45;4.70;;;2.58;;
6823;SDS011;58633;49.470;11.004;2023-08-24T14:26:11;2.47;;;2.28;;
6823;SDS011;58633;49.470;11.004;2023-08-24T14:28:53;4.57;;;3.10;;
6823;SDS011;58633;49.470;11.004;2023-08-24T14:31:21;3.80;;;2.70;;
6823;SDS011;58633;49.470;11.004;2023-08-24T14:33:47;3.30;;;2.60;;
6823;SDS011;58633;49.470;11.004;2023-08-24T14:36:13;3.50;;;2.70;;
6823;SDS011;58633;49.470;11.004;2023-08-24T14:38:39;3.90;;;2.53;;
6823;SDS011;58633;49.470;11.004;2023-08-24T14:41:05;3.05;;;2.65;;
6823;SDS011;58633;49.470;11.004;2023-08-24T14:43:31;5.05;;;2.72;;
6823;SDS011;58633;49.470;11.004;2023-08-24T14:45:57;11.25;;;2.65;;
6823;SDS011;58633;49.470;11.004;2023-08-24T14:48:22;3.83;;;2.38;;
6823;SDS011;58633;49.470;11.004;2023-08-24T14:50:48;3.78;;;2.25;;
6823;SDS011;58633;49.470;11.004;2023-08-24T14:53:14;4.80;;;2.33;;
6823;SDS011;58633;49.470;11.004;2023-08-24T14:55:40;4.88;;;2.50;;
6823;SDS011;58633;49.470;11.004;2023-08-24T14:58:06;4.50;;;2.70;;
6823;SDS011;58633;49.470;11.004;2023-08-24T15:00:32;6.65;;;2.85;;